Time;durP1;ratioP1;P1;durP2;ratioP2;P2;SDS_P1;SDS_P2;PMS_P1;PMS_P2;Temp;Humidity;BMP_temperature;BMP_pressure;BME280_temperature;BME280_humidity;BME280_pressure;Samples;Min_cycle;Max_cycle;Signal;HPM_P1;HPM_P2
2023/08/26 00:01:36;;;;;;;25.15;16.58;;;;;;;;;;8445730;28;20067;-88
2023/08/26 00:05:39;;;;;;;22.30;17.27;;;;;;;;;;8454086;28;20043;-91
2023/08/26 00:09:43;;;;;;;25.13;18.30;;;;;;;;;;8449915;28;20131;-90
2023/08/26 00:13:46;;;;;;;24.67;17.45;;;;;;;;;;8444734;28;20134;-88
2023/08/26 00:17:49;;;;;;;25.88;18.00;;;;;;;;;;8448344;28;20055;-91
2023/08/26 00:21:52;;;;;;;32.22;18.70;;;;;;;;;;8450243;28;20475;-90
2023/08/26 00:25:56;;;;;;;27.65;18.50;;;;;;;;;;8448374;28;20043;-92
2023/08/26 00:29:59;;;;;;;22.45;18.17;;;;;;;;;;8452655;28;20144;-92
2023/08/26 00:34:03;;;;;;;24.42;17.85;;;;;;;;;;8447766;28;20091;-92
2023/08/26 00:38:06;;;;;;;25.20;18.05;;;;;;;;;;8463056;28;20052;-92
2023/08/26 00:42:10;;;;;;;25.75;18.75;;;;;;;;;;8463077;28;20380;-91
2023/08/26 00:46:13;;;;;;;24.80;18.02;;;;;;;;;;8446763;28;20043;-91
2023/08/26 00:50:16;;;;;;;26.85;18.33;;;;;;;;;;8429921;28;20774;-89
2023/08/26 00:54:19;;;;;;;25.70;18.48;;;;;;;;;;8442557;28;20523;-92
2023/08/26 00:58:24;;;;;;;23.42;17.60;;;;;;;;;;8437913;28;20587;-87
2023/08/26 01:02:27;;;;;;;27.58;17.80;;;;;;;;;;8452561;28;20434;-92
2023/08/26 01:06:29;;;;;;;25.60;18.70;;;;;;;;;;8442298;28;20044;-92
2023/08/26 01:10:43;;;;;;;27.30;17.20;;;;;;;;;;8429125;28;20044;-92
2023/08/26 01:14:59;;;;;;;24.83;18.10;;;;;;;;;;8442631;28;20061;-87
2023/08/26 01:19:03;;;;;;;28.70;19.23;;;;;;;;;;8442579;28;20051;-92
2023/08/26 01:23:08;;;;;;;25.65;17.60;;;;;;;;;;8442184;28;20105;-88
2023/08/26 01:27:13;;;;;;;25.13;17.90;;;;;;;;;;8455883;28;20130;-91
2023/08/26 01:31:17;;;;;;;24.45;16.67;;;;;;;;;;8428647;28;20124;-91
2023/08/26 01:35:26;;;;;;;22.92;16.70;;;;;;;;;;8456432;28;20471;-90
2023/08/26 01:39:29;;;;;;;25.90;17.15;;;;;;;;;;8462176;28;20104;-91
2023/08/26 01:43:34;;;;;;;21.02;16.63;;;;;;;;;;8448268;28;20059;-90
2023/08/26 01:47:37;;;;;;;28.33;17.08;;;;;;;;;;8439809;28;20056;-92
2023/08/26 01:51:40;;;;;;;27.08;18.35;;;;;;;;;;8428888;28;20493;-87
2023/08/26 01:55:43;;;;;;;23.30;18.02;;;;;;;;;;8437620;28;20040;-92
2023/08/26 01:59:47;;;;;;;27.65;17.67;;;;;;;;;;8438951;28;20131;-90
2023/08/26 02:03:51;;;;;;;25.17;17.88;;;;;;;;;;8453443;28;20475;-93
2023/08/26 02:07:53;;;;;;;25.02;18.30;;;;;;;;;;8454664;28;20508;-91
2023/08/26 02:11:56;;;;;;;25.63;18.38;;;;;;;;;;8446781;28;20050;-88
2023/08/26 02:16:00;;;;;;;24.13;16.70;;;;;;;;;;8434298;28;20048;-91
2023/08/26 02:20:04;;;;;;;24.98;16.13;;;;;;;;;;8453907;28;20122;-87
2023/08/26 02:24:08;;;;;;;23.48;17.67;;;;;;;;;;8464151;28;20050;-88
2023/08/26 02:28:11;;;;;;;26.60;18.27;;;;;;;;;;8446727;28;20078;-87
2023/08/26 02:32:15;;;;;;;27.40;19.00;;;;;;;;;;8438525;28;20120;-87
2023/08/26 02:36:18;;;;;;;23.52;16.98;;;;;;;;;;8446624;28;20483;-88
2023/08/26 02:40:20;;;;;;;24.98;17.27;;;;;;;;;;8448262;28;20492;-88
2023/08/26 02:44:23;;;;;;;25.42;17.58;;;;;;;;;;8457904;28;20040;-87
2023/08/26 02:48:28;;;;;;;28.85;18.83;;;;;;;;;;8446119;28;20067;-87
2023/08/26 02:52:31;;;;;;;29.38;19.00;;;;;;;;;;8441014;28;20042;-88
2023/08/26 02:56:34;;;;;;;28.38;17.00;;;;;;;;;;8451096;28;20528;-87
2023/08/26 03:00:36;;;;;;;26.02;18.02;;;;;;;;;;8445681;28;20504;-90
2023/08/26 03:04:43;;;;;;;27.45;17.88;;;;;;;;;;8445753;28;20116;-92
2023/08/26 03:08:46;;;;;;;26.75;16.88;;;;;;;;;;8445757;28;20044;-92
2023/08/26 03:12:48;;;;;;;27.77;17.75;;;;;;;;;;8433419;28;20519;-88
2023/08/26 03:16:52;;;;;;;31.15;18.05;;;;;;;;;;8457224;28;20117;-87
2023/08/26 03:20:56;;;;;;;32.20;18.25;;;;;;;;;;8459240;28;20480;-87
2023/08/26 03:24:59;;;;;;;33.10;19.45;;;;;;;;;;8453264;28;20065;-87
2023/08/26 03:29:03;;;;;;;31.33;18.98;;;;;;;;;;8437432;28;20491;-88
2023/08/26 03:33:06;;;;;;;29.58;18.52;;;;;;;;;;8464850;28;20043;-87
2023/08/26 03:37:10;;;;;;;25.13;17.30;;;;;;;;;;8449974;28;20051;-89
2023/08/26 03:41:13;;;;;;;25.27;15.75;;;;;;;;;;8452956;28;20550;-88
2023/08/26 03:45:16;;;;;;;24.75;16.20;;;;;;;;;;8464088;28;20457;-91
2023/08/26 03:49:19;;;;;;;26.65;16.75;;;;;;;;;;8456479;28;20110;-87
2023/08/26 03:53:24;;;;;;;29.95;16.85;;;;;;;;;;8430946;28;20126;-90
2023/08/26 03:57:26;;;;;;;24.92;16.70;;;;;;;;;;8438844;28;20067;-85
2023/08/26 04:01:31;;;;;;;24.90;16.40;;;;;;;;;;8457349;28;20501;-86
2023/08/26 04:05:33;;;;;;;26.08;17.80;;;;;;;;;;8440024;28;20046;-91
2023/08/26 04:09:38;;;;;;;22.95;16.23;;;;;;;;;;8450163;28;20139;-88
2023/08/26 04:13:41;;;;;;;24.80;16.45;;;;;;;;;;8450272;28;20051;-90
2023/08/26 04:17:43;;;;;;;21.05;14.73;;;;;;;;;;8436474;28;20052;-86
2023/08/26 04:21:46;;;;;;;20.20;14.68;;;;;;;;;;8454170;28;20044;-89
2023/08/26 04:25:51;;;;;;;25.60;16.02;;;;;;;;;;8445519;28;20115;-86
2023/08/26 04:29:54;;;;;;;23.85;16.15;;;;;;;;;;8463228;28;20132;-88
2023/08/26 04:33:57;;;;;;;26.27;16.20;;;;;;;;;;8436040;28;20052;-90
2023/08/26 04:38:00;;;;;;;21.73;14.55;;;;;;;;;;8463878;28;20044;-85
2023/08/26 04:42:04;;;;;;;18.33;12.98;;;;;;;;;;8449009;28;20467;-86
2023/08/26 04:46:06;;;;;;;19.83;12.73;;;;;;;;;;8449171;28;20050;-87
2023/08/26 04:50:11;;;;;;;18.05;11.75;;;;;;;;;;8462996;28;20495;-92
2023/08/26 04:54:13;;;;;;;14.23;10.38;;;;;;;;;;8463145;28;20047;-88
2023/08/26 04:58:18;;;;;;;12.15;8.35;;;;;;;;;;8461044;28;20503;-90
2023/08/26 05:02:21;;;;;;;11.15;6.90;;;;;;;;;;8438456;28;20048;-87
2023/08/26 05:06:23;;;;;;;9.77;6.05;;;;;;;;;;8462387;28;20051;-86
2023/08/26 05:10:26;;;;;;;12.13;5.75;;;;;;;;;;8439688;28;20064;-91
2023/08/26 05:14:31;;;;;;;11.32;5.10;;;;;;;;;;8444839;28;20048;-87
2023/08/26 05:18:34;;;;;;;11.20;5.70;;;;;;;;;;8462526;28;20126;-87
2023/08/26 05:22:37;;;;;;;9.40;4.97;;;;;;;;;;8448941;28;20479;-89
2023/08/26 05:26:39;;;;;;;8.52;5.38;;;;;;;;;;8449206;28;20052;-88
2023/08/26 05:30:44;;;;;;;8.45;4.85;;;;;;;;;;8462640;28;20122;-91
2023/08/26 05:34:46;;;;;;;8.38;5.15;;;;;;;;;;8468001;28;20043;-91
2023/08/26 05:38:49;;;;;;;12.05;5.50;;;;;;;;;;8453483;28;20068;-87
2023/08/26 05:42:52;;;;;;;6.43;4.75;;;;;;;;;;8466276;28;20043;-86
2023/08/26 05:46:56;;;;;;;9.50;4.93;;;;;;;;;;8444086;28;20051;-90
2023/08/26 05:50:59;;;;;;;8.73;5.15;;;;;;;;;;8461736;28;20134;-89
2023/08/26 05:55:02;;;;;;;7.60;4.90;;;;;;;;;;8434498;28;20134;-86
2023/08/26 05:59:05;;;;;;;9.00;4.88;;;;;;;;;;8448495;28;20143;-89
2023/08/26 06:03:09;;;;;;;8.05;5.10;;;;;;;;;;8465139;28;20039;-87
2023/08/26 06:07:12;;;;;;;6.68;4.05;;;;;;;;;;8453881;28;20475;-88
2023/08/26 06:11:15;;;;;;;7.47;4.10;;;;;;;;;;8453724;28;20124;-87
2023/08/26 06:15:18;;;;;;;6.32;4.22;;;;;;;;;;8453749;28;20097;-90
2023/08/26 06:19:22;;;;;;;8.02;4.40;;;;;;;;;;8453352;28;20122;-85
2023/08/26 06:23:25;;;;;;;5.85;3.63;;;;;;;;;;8455718;28;20139;-93
2023/08/26 06:27:28;;;;;;;6.93;3.80;;;;;;;;;;8437884;28;20043;-90
2023/08/26 06:31:30;;;;;;;7.40;3.80;;;;;;;;;;8453078;28;20043;-90
2023/08/26 06:35:35;;;;;;;8.52;3.70;;;;;;;;;;8451331;28;20051;-91
2023/08/26 06:39:37;;;;;;;4.70;3.03;;;;;;;;;;8449677;28;20139;-92
2023/08/26 06:43:40;;;;;;;5.57;3.33;;;;;;;;;;8440924;28;20156;-87
2023/08/26 06:47:42;;;;;;;5.57;3.60;;;;;;;;;;8453048;28;20451;-92
2023/08/26 06:51:47;;;;;;;5.57;3.40;;;;;;;;;;8439094;28;20127;-92
2023/08/26 06:55:50;;;;;;;6.28;3.40;;;;;;;;;;8443450;28;20052;-90
2023/08/26 06:59:53;;;;;;;8.50;3.70;;;;;;;;;;8445525;28;20139;-85
2023/08/26 07:04:04;;;;;;;6.78;3.20;;;;;;;;;;8454868;28;20104;-89
2023/08/26 07:08:08;;;;;;;6.65;3.03;;;;;;;;;;8462327;28;20487;-90
2023/08/26 07:12:12;;;;;;;6.00;2.92;;;;;;;;;;8449921;28;20043;-89
2023/08/26 07:16:15;;;;;;;8.45;3.20;;;;;;;;;;8434022;28;20047;-91
2023/08/26 07:20:18;;;;;;;6.95;3.50;;;;;;;;;;8442868;28;20472;-89
2023/08/26 07:24:22;;;;;;;7.00;2.90;;;;;;;;;;8440115;28;20051;-90
2023/08/26 07:28:25;;;;;;;4.57;2.80;;;;;;;;;;8441085;28;20040;-91
2023/08/26 07:32:28;;;;;;;8.80;2.97;;;;;;;;;;8450734;28;20392;-90
2023/08/26 07:36:31;;;;;;;6.18;2.85;;;;;;;;;;8449439;28;20457;-91
2023/08/26 07:40:35;;;;;;;5.05;2.80;;;;;;;;;;8451583;28;20177;-91
2023/08/26 07:44:38;;;;;;;6.07;2.88;;;;;;;;;;8453459;28;20051;-89
2023/08/26 07:48:41;;;;;;;5.65;3.00;;;;;;;;;;8458383;28;20047;-88
2023/08/26 07:52:44;;;;;;;5.47;3.10;;;;;;;;;;8442309;28;20102;-90
2023/08/26 07:56:49;;;;;;;5.28;2.60;;;;;;;;;;8451673;28;20114;-91
2023/08/26 08:00:51;;;;;;;5.45;3.05;;;;;;;;;;8452331;28;20530;-91
2023/08/26 08:04:54;;;;;;;3.30;2.58;;;;;;;;;;8448532;28;20463;-90
2023/08/26 08:08:56;;;;;;;5.25;2.72;;;;;;;;;;8450395;28;20526;-90
2023/08/26 08:13:01;;;;;;;5.32;2.40;;;;;;;;;;8441097;28;20419;-90
2023/08/26 08:17:04;;;;;;;6.93;2.80;;;;;;;;;;8445325;28;20112;-90
2023/08/26 08:21:08;;;;;;;7.55;2.95;;;;;;;;;;8446514;28;20071;-89
2023/08/26 08:25:12;;;;;;;3.55;2.50;;;;;;;;;;8446981;28;20513;-90
2023/08/26 08:29:16;;;;;;;4.88;2.55;;;;;;;;;;8430417;28;20459;-88
2023/08/26 08:33:19;;;;;;;6.05;2.67;;;;;;;;;;8449076;28;20054;-92
2023/08/26 08:37:22;;;;;;;4.70;2.70;;;;;;;;;;8449460;28;20044;-91
2023/08/26 08:41:24;;;;;;;4.00;2.40;;;;;;;;;;8439975;28;20047;-90
2023/08/26 08:45:29;;;;;;;4.95;2.50;;;;;;;;;;8433458;28;20116;-91
2023/08/26 08:49:33;;;;;;;6.18;2.90;;;;;;;;;;8424263;28;20274;-92
2023/08/26 08:53:41;;;;;;;5.30;2.78;;;;;;;;;;8451515;28;20055;-91
2023/08/26 08:57:46;;;;;;;4.60;2.83;;;;;;;;;;8451894;28;20146;-91
2023/08/26 09:01:53;;;;;;;6.75;3.03;;;;;;;;;;8437518;28;20087;-92
2023/08/26 09:06:03;;;;;;;5.57;2.95;;;;;;;;;;8458522;28;20086;-91
2023/08/26 09:10:11;;;;;;;6.43;2.95;;;;;;;;;;8453447;28;20048;-89
2023/08/26 09:14:13;;;;;;;4.65;2.58;;;;;;;;;;8451267;28;20055;-92
2023/08/26 09:18:19;;;;;;;4.65;2.50;;;;;;;;;;8461275;28;20497;-92
2023/08/26 09:22:25;;;;;;;5.15;3.08;;;;;;;;;;8451683;28;20070;-93
2023/08/26 09:26:33;;;;;;;5.78;3.25;;;;;;;;;;8434571;28;20047;-93
2023/08/26 09:30:36;;;;;;;4.43;2.75;;;;;;;;;;8454877;28;20047;-92
2023/08/26 09:34:41;;;;;;;5.90;2.63;;;;;;;;;;8454048;28;20039;-92
2023/08/26 09:38:47;;;;;;;4.25;2.58;;;;;;;;;;8452806;28;20048;-94
2023/08/26 09:42:51;;;;;;;5.05;2.80;;;;;;;;;;8443658;28;20540;-94
2023/08/26 09:46:57;;;;;;;5.15;2.78;;;;;;;;;;8450449;28;20064;-93
2023/08/26 09:51:02;;;;;;;5.75;2.80;;;;;;;;;;8460668;28;20054;-92
2023/08/26 09:55:06;;;;;;;5.78;2.90;;;;;;;;;;8460492;28;20043;-92
2023/08/26 09:59:10;;;;;;;7.10;2.85;;;;;;;;;;8450304;28;20166;-93
2023/08/26 10:03:16;;;;;;;5.63;2.80;;;;;;;;;;8435669;28;20071;-91
2023/08/26 10:07:24;;;;;;;8.02;3.38;;;;;;;;;;8458381;28;20050;-94
2023/08/26 10:11:29;;;;;;;5.93;3.25;;;;;;;;;;8455468;28;20548;-93
2023/08/26 10:15:34;;;;;;;5.30;3.10;;;;;;;;;;8463868;28;20051;-92
2023/08/26 10:19:47;;;;;;;4.68;2.95;;;;;;;;;;8453181;28;20105;-93
2023/08/26 10:23:51;;;;;;;7.82;2.67;;;;;;;;;;8437981;28;20048;-89
2023/08/26 10:27:55;;;;;;;5.65;3.17;;;;;;;;;;8446655;28;20115;-92
2023/08/26 10:31:58;;;;;;;5.43;3.20;;;;;;;;;;8774803;22;20076;-89
2023/08/26 10:36:13;;;;;;;5.40;2.58;;;;;;;;;;8425782;28;20566;-92
2023/08/26 10:40:17;;;;;;;5.15;2.70;;;;;;;;;;8401868;28;20123;-95
2023/08/26 10:44:31;;;;;;;4.03;2.88;;;;;;;;;;8417018;28;20044;-94
2023/08/26 10:48:57;;;;;;;5.60;2.70;;;;;;;;;;8425032;28;20470;-94
2023/08/26 10:53:13;;;;;;;4.88;2.97;;;;;;;;;;8414373;28;20119;-91
2023/08/26 10:57:20;;;;;;;6.30;2.90;;;;;;;;;;8408737;28;20700;-93
2023/08/26 11:01:23;;;;;;;5.78;2.80;;;;;;;;;;8411033;28;20055;-95
2023/08/26 11:05:26;;;;;;;4.50;3.00;;;;;;;;;;8420603;28;20087;-92
2023/08/26 11:09:37;;;;;;;5.00;3.10;;;;;;;;;;8403195;28;20083;-92
2023/08/26 11:13:42;;;;;;;5.00;2.95;;;;;;;;;;8414786;28;20044;-91
2023/08/26 11:17:44;;;;;;;4.05;3.00;;;;;;;;;;8415867;28;20068;-91
2023/08/26 11:21:47;;;;;;;4.55;2.92;;;;;;;;;;8421500;28;20052;-91
2023/08/26 11:25:50;;;;;;;6.15;2.97;;;;;;;;;;8423010;28;20585;-92
2023/08/26 11:29:54;;;;;;;7.75;3.30;;;;;;;;;;8414692;28;20143;-93
2023/08/26 11:33:57;;;;;;;6.55;2.80;;;;;;;;;;8408762;28;20094;-88
2023/08/26 11:38:01;;;;;;;5.80;2.95;;;;;;;;;;8414756;28;20040;-91
2023/08/26 11:42:12;;;;;;;5.85;3.20;;;;;;;;;;8417090;28;20561;-87
2023/08/26 11:46:18;;;;;;;4.40;3.00;;;;;;;;;;8410619;28;20044;-90
2023/08/26 11:50:21;;;;;;;5.50;3.20;;;;;;;;;;8404900;28;20063;-91
2023/08/26 11:54:26;;;;;;;5.15;3.25;;;;;;;;;;8408361;28;20856;-93
2023/08/26 11:58:29;;;;;;;7.15;3.10;;;;;;;;;;8412965;28;20055;-91
2023/08/26 12:02:34;;;;;;;4.95;2.63;;;;;;;;;;8416484;28;20539;-93
2023/08/26 12:06:37;;;;;;;6.30;3.00;;;;;;;;;;8414626;28;20093;-93
2023/08/26 12:10:40;;;;;;;11.82;3.40;;;;;;;;;;8417377;28;20082;-93
2023/08/26 12:14:42;;;;;;;5.93;3.33;;;;;;;;;;8415828;28;20054;-92
2023/08/26 12:18:48;;;;;;;6.88;3.10;;;;;;;;;;8420362;28;20064;-91
2023/08/26 12:22:51;;;;;;;4.78;2.95;;;;;;;;;;8420552;28;20072;-92
2023/08/26 12:26:55;;;;;;;6.80;2.80;;;;;;;;;;8413883;28;20101;-92
2023/08/26 12:30:58;;;;;;;5.65;3.45;;;;;;;;;;8420670;28;20552;-92
2023/08/26 12:35:02;;;;;;;13.45;3.60;;;;;;;;;;8413897;28;20483;-92
2023/08/26 12:39:06;;;;;;;6.97;3.33;;;;;;;;;;8417327;28;20048;-90
2023/08/26 12:43:09;;;;;;;4.60;3.25;;;;;;;;;;8409743;28;20123;-91
2023/08/26 12:47:12;;;;;;;5.57;3.03;;;;;;;;;;8405134;28;20040;-87
2023/08/26 12:51:19;;;;;;;5.88;3.30;;;;;;;;;;8416756;28;20115;-91
2023/08/26 12:55:22;;;;;;;6.07;3.40;;;;;;;;;;8412159;28;20538;-88
2023/08/26 12:59:26;;;;;;;6.47;3.03;;;;;;;;;;8413111;28;20078;-90
2023/08/26 13:03:30;;;;;;;5.95;3.15;;;;;;;;;;8403591;28;20515;-89
2023/08/26 13:07:34;;;;;;;7.72;3.42;;;;;;;;;;8408339;28;20131;-91
2023/08/26 13:11:37;;;;;;;5.60;3.50;;;;;;;;;;8407923;28;20400;-88
2023/08/26 13:15:41;;;;;;;5.20;3.20;;;;;;;;;;8406985;28;20075;-91
2023/08/26 13:19:45;;;;;;;4.00;3.30;;;;;;;;;;8403767;28;20044;-90
2023/08/26 13:23:52;;;;;;;7.65;3.53;;;;;;;;;;8411592;28;20044;-88
2023/08/26 13:27:55;;;;;;;5.35;3.10;;;;;;;;;;8403691;28;20750;-89
2023/08/26 13:31:58;;;;;;;5.82;3.40;;;;;;;;;;8406490;28;20088;-91
2023/08/26 13:36:01;;;;;;;4.35;3.22;;;;;;;;;;8408243;28;20044;-89
2023/08/26 13:40:07;;;;;;;4.68;3.17;;;;;;;;;;8412839;28;20052;-91
2023/08/26 13:44:10;;;;;;;4.65;3.13;;;;;;;;;;8415962;28;20044;-93
2023/08/26 13:48:13;;;;;;;5.53;3.50;;;;;;;;;;8416350;28;20048;-91
2023/08/26 13:52:16;;;;;;;5.07;3.17;;;;;;;;;;8410673;28;20113;-90
2023/08/26 13:56:22;;;;;;;11.30;4.03;;;;;;;;;;8419704;28;20052;-90
2023/08/26 14:00:24;;;;;;;6.68;3.33;;;;;;;;;;8417034;28;20445;-90
2023/08/26 14:04:28;;;;;;;5.65;3.20;;;;;;;;;;8412302;28;20477;-89
2023/08/26 14:08:32;;;;;;;5.97;3.70;;;;;;;;;;8419811;28;20064;-89
2023/08/26 14:12:38;;;;;;;6.32;3.30;;;;;;;;;;8418012;28;20419;-89
2023/08/26 14:16:42;;;;;;;9.98;3.88;;;;;;;;;;8411532;28;20036;-90
2023/08/26 14:20:46;;;;;;;7.32;3.40;;;;;;;;;;8418032;28;20051;-91
2023/08/26 14:24:48;;;;;;;5.38;3.10;;;;;;;;;;8416562;28;20052;-91
2023/08/26 14:28:55;;;;;;;6.07;3.53;;;;;;;;;;8405864;28;20044;-90
2023/08/26 14:32:58;;;;;;;4.60;3.10;;;;;;;;;;8408454;28;20060;-90
2023/08/26 14:37:01;;;;;;;7.68;3.53;;;;;;;;;;8409757;28;20082;-90
2023/08/26 14:41:04;;;;;;;6.95;3.90;;;;;;;;;;8420875;28;20095;-90
2023/08/26 14:45:10;;;;;;;6.97;3.30;;;;;;;;;;8408952;28;20056;-89
2023/08/26 14:49:13;;;;;;;6.55;3.72;;;;;;;;;;8408742;28;20056;-89
2023/08/26 14:53:16;;;;;;;5.57;3.67;;;;;;;;;;8423672;28;20085;-89
2023/08/26 14:57:20;;;;;;;8.50;3.85;;;;;;;;;;8413437;28;20507;-89
2023/08/26 15:01:26;;;;;;;7.47;3.88;;;;;;;;;;8426879;28;20051;-89
2023/08/26 15:05:29;;;;;;;6.28;4.20;;;;;;;;;;8415091;28;20135;-90
2023/08/26 15:09:31;;;;;;;6.53;3.80;;;;;;;;;;8421220;28;20093;-90
2023/08/26 15:13:34;;;;;;;8.68;4.00;;;;;;;;;;8420807;28;20063;-90
2023/08/26 15:17:39;;;;;;;6.65;3.75;;;;;;;;;;8408580;28;20040;-90
2023/08/26 15:21:42;;;;;;;11.18;4.18;;;;;;;;;;8402260;28;20044;-90
2023/08/26 15:25:50;;;;;;;7.55;4.07;;;;;;;;;;8412071;28;20592;-89
2023/08/26 15:29:53;;;;;;;7.22;4.05;;;;;;;;;;8415916;28;20093;-90
2023/08/26 15:33:58;;;;;;;6.45;4.43;;;;;;;;;;8405412;28;20126;-89
2023/08/26 15:38:00;;;;;;;6.75;4.03;;;;;;;;;;8410167;28;20044;-88
2023/08/26 15:42:05;;;;;;;6.13;3.88;;;;;;;;;;8411672;28;20053;-91
2023/08/26 15:46:11;;;;;;;9.32;3.88;;;;;;;;;;8421256;28;20077;-90
2023/08/26 15:50:16;;;;;;;9.15;4.07;;;;;;;;;;8418653;28;20040;-91
2023/08/26 15:54:19;;;;;;;10.95;4.68;;;;;;;;;;8412082;28;20129;-89
2023/08/26 15:58:22;;;;;;;10.60;4.00;;;;;;;;;;8402093;28;20407;-90
2023/08/26 16:02:25;;;;;;;7.65;4.20;;;;;;;;;;8418749;28;20052;-91
2023/08/26 16:06:29;;;;;;;10.57;4.57;;;;;;;;;;8415550;28;20071;-89
2023/08/26 16:10:32;;;;;;;7.32;4.03;;;;;;;;;;8418137;28;20044;-91
2023/08/26 16:14:35;;;;;;;6.68;4.03;;;;;;;;;;8408494;28;20044;-91
2023/08/26 16:18:40;;;;;;;8.57;4.78;;;;;;;;;;8407779;28;20048;-90
2023/08/26 16:22:48;;;;;;;8.77;4.32;;;;;;;;;;8405179;28;20076;-91
2023/08/26 16:26:53;;;;;;;;;;;;;;;;;;8409137;28;20055;-91
2023/08/26 16:30:57;;;;;;;8.52;4.28;;;;;;;;;;8408155;28;19924;-91
2023/08/26 16:35:01;;;;;;;6.95;4.47;;;;;;;;;;8407559;28;20054;-91
2023/08/26 16:39:15;;;;;;;8.27;5.35;;;;;;;;;;8408346;28;20045;-89
2023/08/26 16:43:19;;;;;;;11.65;5.57;;;;;;;;;;8406170;28;20051;-89
2023/08/26 16:47:25;;;;;;;9.95;4.95;;;;;;;;;;8408335;28;20135;-91
2023/08/26 16:51:30;;;;;;;9.15;5.28;;;;;;;;;;8401527;28;20161;-90
2023/08/26 16:55:38;;;;;;;8.63;4.75;;;;;;;;;;8421510;28;20510;-92
2023/08/26 16:59:45;;;;;;;17.83;11.07;;;;;;;;;;8415690;28;20040;-90
2023/08/26 17:03:49;;;;;;;12.25;7.53;;;;;;;;;;8415696;28;20072;-91
2023/08/26 17:07:51;;;;;;;9.07;5.60;;;;;;;;;;8409724;28;20054;-90
2023/08/26 17:11:56;;;;;;;15.15;8.27;;;;;;;;;;8423982;28;20212;-90
2023/08/26 17:16:02;;;;;;;10.70;5.30;;;;;;;;;;8426568;28;20040;-90
2023/08/26 17:20:05;;;;;;;10.63;5.03;;;;;;;;;;8414697;28;20044;-90
2023/08/26 17:24:08;;;;;;;10.13;5.68;;;;;;;;;;8428319;28;20173;-91
2023/08/26 17:28:13;;;;;;;8.77;6.03;;;;;;;;;;8434458;28;20126;-90
2023/08/26 17:32:16;;;;;;;12.10;5.72;;;;;;;;;;8425546;28;20583;-88
2023/08/26 17:36:19;;;;;;;11.15;6.50;;;;;;;;;;8412517;28;20052;-91
2023/08/26 17:40:22;;;;;;;9.02;7.00;;;;;;;;;;8406215;28;20531;-90
2023/08/26 17:44:26;;;;;;;11.95;7.60;;;;;;;;;;8417303;28;20054;-89
2023/08/26 17:48:31;;;;;;;11.20;8.07;;;;;;;;;;8424563;28;20393;-88
2023/08/26 17:52:35;;;;;;;14.10;7.97;;;;;;;;;;8424882;28;20140;-89
2023/08/26 17:56:37;;;;;;;14.43;8.93;;;;;;;;;;8420222;28;20051;-88
2023/08/26 18:00:42;;;;;;;19.77;13.90;;;;;;;;;;8425003;28;20044;-89
2023/08/26 18:04:45;;;;;;;17.80;12.45;;;;;;;;;;8429730;28;20048;-87
2023/08/26 18:08:48;;;;;;;18.70;11.45;;;;;;;;;;8426976;28;20090;-88
2023/08/26 18:12:51;;;;;;;18.27;10.85;;;;;;;;;;8433702;28;20115;-87
2023/08/26 18:16:55;;;;;;;15.88;9.70;;;;;;;;;;8432631;28;20055;-87
2023/08/26 18:20:58;;;;;;;13.35;8.85;;;;;;;;;;8433560;28;20048;-87
2023/08/26 18:25:04;;;;;;;14.77;9.50;;;;;;;;;;8433279;28;20126;-87
2023/08/26 18:29:07;;;;;;;14.25;9.32;;;;;;;;;;8426163;28;20132;-91
2023/08/26 18:33:12;;;;;;;15.45;9.05;;;;;;;;;;8416953;28;20113;-87
2023/08/26 18:37:16;;;;;;;14.57;9.65;;;;;;;;;;8415825;28;20048;-88
2023/08/26 18:41:19;;;;;;;13.02;9.23;;;;;;;;;;8412116;28;20051;-88
2023/08/26 18:45:22;;;;;;;12.65;8.80;;;;;;;;;;8411653;28;20131;-88
2023/08/26 18:49:27;;;;;;;14.45;10.02;;;;;;;;;;8431484;28;20730;-88
2023/08/26 18:53:31;;;;;;;12.55;9.25;;;;;;;;;;8432048;28;20134;-88
2023/08/26 18:57:34;;;;;;;26.83;12.35;;;;;;;;;;8417762;28;20051;-90
2023/08/26 19:01:38;;;;;;;20.50;11.40;;;;;;;;;;8417459;28;20093;-89
2023/08/26 19:05:44;;;;;;;15.27;9.70;;;;;;;;;;8418220;28;20043;-90
2023/08/26 19:09:47;;;;;;;14.10;9.55;;;;;;;;;;8426867;28;20412;-88
2023/08/26 19:13:51;;;;;;;13.25;8.93;;;;;;;;;;8415441;28;20071;-91
2023/08/26 19:17:55;;;;;;;13.35;8.80;;;;;;;;;;8413908;28;20062;-90
2023/08/26 19:22:02;;;;;;;17.35;9.65;;;;;;;;;;8415682;28;20051;-90
2023/08/26 19:26:05;;;;;;;20.55;9.90;;;;;;;;;;8424106;28;20130;-90
2023/08/26 19:30:09;;;;;;;17.83;10.27;;;;;;;;;;8430706;28;20040;-90
2023/08/26 19:34:14;;;;;;;17.45;10.27;;;;;;;;;;8421068;28;20067;-87
2023/08/26 19:38:18;;;;;;;25.35;13.90;;;;;;;;;;8431434;28;20123;-88
2023/08/26 19:42:23;;;;;;;21.98;14.27;;;;;;;;;;8430883;28;20151;-90
2023/08/26 19:46:26;;;;;;;22.77;14.95;;;;;;;;;;8417221;28;20051;-88
2023/08/26 19:50:29;;;;;;;18.67;12.00;;;;;;;;;;8429812;28;20048;-88
2023/08/26 19:54:34;;;;;;;16.23;11.82;;;;;;;;;;8430371;28;20059;-88
2023/08/26 19:58:38;;;;;;;17.60;10.85;;;;;;;;;;8430892;28;20067;-89
2023/08/26 20:02:41;;;;;;;18.73;12.07;;;;;;;;;;8417101;28;20056;-89
2023/08/26 20:06:44;;;;;;;21.70;12.35;;;;;;;;;;8426115;28;20057;-90
2023/08/26 20:10:50;;;;;;;17.27;11.80;;;;;;;;;;8427845;28;20039;-90
2023/08/26 20:15:01;;;;;;;64.03;22.00;;;;;;;;;;8428879;28;20056;-91
2023/08/26 20:19:05;;;;;;;15.80;11.20;;;;;;;;;;8419243;28;20055;-88
2023/08/26 20:23:10;;;;;;;14.55;10.07;;;;;;;;;;8420936;28;20120;-89
2023/08/26 20:27:16;;;;;;;23.15;13.70;;;;;;;;;;8415408;28;20040;-88
2023/08/26 20:31:20;;;;;;;15.98;10.88;;;;;;;;;;8417268;28;20114;-91
2023/08/26 20:35:24;;;;;;;20.17;12.57;;;;;;;;;;8413626;28;20479;-89
2023/08/26 20:39:28;;;;;;;16.40;11.15;;;;;;;;;;8420978;28;20037;-89
2023/08/26 20:43:36;;;;;;;16.67;11.70;;;;;;;;;;8415735;28;20055;-90
2023/08/26 20:47:39;;;;;;;15.45;11.38;;;;;;;;;;8421504;28;20484;-90
2023/08/26 20:51:44;;;;;;;15.23;11.32;;;;;;;;;;8419683;28;20041;-90
2023/08/26 20:55:47;;;;;;;19.17;11.45;;;;;;;;;;8421400;28;20040;-91
2023/08/26 20:59:52;;;;;;;15.98;12.02;;;;;;;;;;8428867;28;20044;-89
2023/08/26 21:03:56;;;;;;;18.95;12.05;;;;;;;;;;8424506;28;20040;-90
2023/08/26 21:07:59;;;;;;;21.00;12.55;;;;;;;;;;8421668;28;20056;-89
2023/08/26 21:12:02;;;;;;;16.33;11.32;;;;;;;;;;8423226;28;20657;-89
2023/08/26 21:16:06;;;;;;;18.85;11.55;;;;;;;;;;8416637;28;20411;-89
2023/08/26 21:20:11;;;;;;;19.27;12.25;;;;;;;;;;8426135;28;20440;-90
2023/08/26 21:24:14;;;;;;;19.42;12.65;;;;;;;;;;8428533;28;20104;-89
2023/08/26 21:28:17;;;;;;;19.98;13.35;;;;;;;;;;8415659;28;20051;-89
2023/08/26 21:32:21;;;;;;;23.17;17.58;;;;;;;;;;8420332;28;20052;-90
2023/08/26 21:36:24;;;;;;;37.65;28.70;;;;;;;;;;8426534;28;20602;-89
2023/08/26 21:40:27;;;;;;;32.30;23.20;;;;;;;;;;8406155;28;20044;-90
2023/08/26 21:44:30;;;;;;;44.17;29.70;;;;;;;;;;8416158;28;20480;-90
2023/08/26 21:48:34;;;;;;;23.88;16.92;;;;;;;;;;8424873;28;20048;-91
2023/08/26 21:52:37;;;;;;;20.05;13.75;;;;;;;;;;8428289;28;20050;-91
2023/08/26 21:56:40;;;;;;;22.73;14.40;;;;;;;;;;8425971;28;20470;-90
2023/08/26 22:00:43;;;;;;;20.90;13.65;;;;;;;;;;8417363;28;20135;-90
2023/08/26 22:04:47;;;;;;;21.88;14.07;;;;;;;;;;8427839;28;20040;-90
2023/08/26 22:08:50;;;;;;;18.83;12.43;;;;;;;;;;8427933;28;20047;-90
2023/08/26 22:12:55;;;;;;;23.73;13.13;;;;;;;;;;8428650;28;20058;-90
2023/08/26 22:16:58;;;;;;;22.30;13.80;;;;;;;;;;8434306;28;20047;-90
2023/08/26 22:21:02;;;;;;;22.05;14.80;;;;;;;;;;8430579;28;20051;-90
2023/08/26 22:25:05;;;;;;;25.45;15.73;;;;;;;;;;8416173;28;20087;-89
2023/08/26 22:29:08;;;;;;;91.00;70.60;;;;;;;;;;8426294;28;20036;-89
2023/08/26 22:33:11;;;;;;;85.30;66.65;;;;;;;;;;8427121;28;20098;-89
2023/08/26 22:37:16;;;;;;;44.72;29.92;;;;;;;;;;8431859;28;20044;-89
2023/08/26 22:41:18;;;;;;;28.92;19.30;;;;;;;;;;8424670;28;20047;-89
2023/08/26 22:45:21;;;;;;;25.67;16.70;;;;;;;;;;8431260;28;20062;-90
2023/08/26 22:49:23;;;;;;;22.02;13.43;;;;;;;;;;8410486;28;20040;-89
2023/08/26 22:53:28;;;;;;;23.58;13.98;;;;;;;;;;8428638;28;20047;-89
2023/08/26 22:57:31;;;;;;;23.55;13.98;;;;;;;;;;8428144;28;20039;-90
2023/08/26 23:01:34;;;;;;;21.70;14.15;;;;;;;;;;8422982;28;20499;-91
2023/08/26 23:05:36;;;;;;;20.17;14.02;;;;;;;;;;8420942;28;20120;-90
2023/08/26 23:09:41;;;;;;;21.27;13.48;;;;;;;;;;8429710;28;20044;-89
2023/08/26 23:13:44;;;;;;;23.30;12.82;;;;;;;;;;8426671;28;20055;-90
2023/08/26 23:17:47;;;;;;;21.38;12.65;;;;;;;;;;8426203;28;20049;-90
2023/08/26 23:21:52;;;;;;;23.02;13.88;;;;;;;;;;8425792;28;20044;-89
2023/08/26 23:25:56;;;;;;;37.92;28.63;;;;;;;;;;8431178;28;20040;-91
2023/08/26 23:29:59;;;;;;;28.83;19.30;;;;;;;;;;8416929;28;20119;-90
2023/08/26 23:34:02;;;;;;;55.42;45.67;;;;;;;;;;8422512;28;20055;-89
2023/08/26 23:38:05;;;;;;;20.48;15.00;;;;;;;;;;8431102;28;20170;-93
2023/08/26 23:42:09;;;;;;;17.85;12.40;;;;;;;;;;8431206;28;20040;-89
2023/08/26 23:46:12;;;;;;;20.42;12.73;;;;;;;;;;8429425;28;20044;-89
2023/08/26 23:50:15;;;;;;;19.13;12.98;;;;;;;;;;8430448;28;20047;-88
2023/08/26 23:54:17;;;;;;;18.98;13.35;;;;;;;;;;8430575;28;20669;-89
2023/08/26 23:58:21;;;;;;;18.42;13.20;;;;;;;;;;8427968;28;20130;-89
